Time;durP1;ratioP1;P1;durP2;ratioP2;P2;SDS_P1;SDS_P2;PMS_P1;PMS_P2;Temp;Humidity;BMP_temperature;BMP_pressure;BME280_temperature;BME280_humidity;BME280_pressure;Samples;Min_cycle;Max_cycle;Signal;HPM_P1;HPM_P2
2023/02/08 00:00:54;;;;;;;6.70;4.93;;;17.40;33.80;;;;;;5035580;28;20216;-68
2023/02/08 00:03:23;;;;;;;8.02;4.90;;;17.40;33.70;;;;;;5035681;28;20188;-68
2023/02/08 00:05:51;;;;;;;7.50;5.45;;;17.40;33.70;;;;;;5035402;28;20242;-68
2023/02/08 00:08:18;;;;;;;8.13;5.65;;;17.40;33.80;;;;;;5035121;28;20238;-68
2023/02/08 00:10:45;;;;;;;8.82;5.18;;;17.40;33.70;;;;;;5035209;28;20235;-67
2023/02/08 00:13:12;;;;;;;9.15;5.82;;;17.30;33.60;;;;;;5035341;28;20658;-68
2023/02/08 00:15:42;;;;;;;8.38;5.70;;;17.40;33.70;;;;;;5035339;28;20278;-68
2023/02/08 00:18:10;;;;;;;7.75;5.28;;;17.40;33.70;;;;;;5035286;28;20196;-68
2023/02/08 00:20:40;;;;;;;6.75;4.80;;;17.30;33.60;;;;;;5035003;28;20236;-68
2023/02/08 00:23:07;;;;;;;9.05;5.95;;;17.40;33.70;;;;;;5035398;28;20222;-68
2023/02/08 00:25:35;;;;;;;9.85;5.55;;;17.30;33.60;;;;;;5035224;28;20274;-68
2023/02/08 00:28:02;;;;;;;8.68;5.45;;;17.30;33.50;;;;;;5034934;28;20192;-68
2023/02/08 00:30:29;;;;;;;10.98;5.30;;;17.30;33.60;;;;;;5034247;28;20270;-68
2023/02/08 00:32:56;;;;;;;7.15;5.20;;;17.30;33.50;;;;;;5035087;28;20199;-68
2023/02/08 00:35:23;;;;;;;9.77;5.80;;;17.30;33.50;;;;;;5034819;28;20274;-68
2023/02/08 00:37:51;;;;;;;8.73;5.55;;;17.30;33.50;;;;;;5017319;28;20647;-68
2023/02/08 00:40:19;;;;;;;8.38;5.45;;;17.30;33.50;;;;;;5034782;28;20298;-68
2023/02/08 00:42:46;;;;;;;8.68;5.45;;;17.30;33.50;;;;;;5034966;28;20247;-68
2023/02/08 00:45:13;;;;;;;8.73;5.50;;;17.30;33.50;;;;;;5034724;28;20772;-68
2023/02/08 00:47:40;;;;;;;9.57;5.50;;;17.30;33.50;;;;;;5035010;28;20189;-68
2023/02/08 00:50:08;;;;;;;8.68;5.18;;;17.20;33.40;;;;;;5016964;28;20224;-68
2023/02/08 00:52:35;;;;;;;6.57;4.88;;;17.30;33.50;;;;;;5034780;28;20189;-68
2023/02/08 00:55:04;;;;;;;7.70;5.55;;;17.30;33.50;;;;;;5034847;28;20266;-68
2023/02/08 00:57:32;;;;;;;7.35;5.15;;;17.30;33.50;;;;;;5034749;28;20592;-68
2023/02/08 00:59:59;;;;;;;8.32;5.20;;;17.30;33.50;;;;;;5034382;28;20652;-67
2023/02/08 01:02:27;;;;;;;7.10;5.18;;;17.20;33.30;;;;;;5034586;28;20242;-67
2023/02/08 01:04:54;;;;;;;7.78;5.00;;;17.20;33.30;;;;;;5034610;28;20262;-68
2023/02/08 01:07:21;;;;;;;10.27;5.70;;;17.20;33.30;;;;;;5034600;28;20242;-68
2023/02/08 01:09:48;;;;;;;7.30;5.28;;;17.20;33.30;;;;;;5034413;28;20221;-68
2023/02/08 01:12:16;;;;;;;6.85;5.40;;;17.20;33.30;;;;;;5034259;28;20243;-68
2023/02/08 01:14:44;;;;;;;8.75;5.65;;;17.20;33.30;;;;;;5034257;28;20247;-68
2023/02/08 01:17:11;;;;;;;8.73;5.68;;;17.20;33.20;;;;;;5016385;28;20649;-68
2023/02/08 01:19:38;;;;;;;7.40;5.30;;;17.20;33.20;;;;;;5034137;28;20221;-68
2023/02/08 01:22:05;;;;;;;8.57;5.70;;;17.20;33.20;;;;;;5034241;28;20192;-68
2023/02/08 01:24:32;;;;;;;8.85;6.00;;;17.20;33.20;;;;;;5033819;28;20274;-68
2023/02/08 01:26:59;;;;;;;7.72;4.95;;;17.20;33.20;;;;;;5033845;28;20235;-68
2023/02/08 01:29:28;;;;;;;7.80;5.93;;;17.20;33.10;;;;;;5034189;28;20278;-68
2023/02/08 01:31:55;;;;;;;9.43;5.70;;;17.10;33.10;;;;;;5034056;28;20246;-67
2023/02/08 01:34:22;;;;;;;9.20;5.50;;;17.10;33.10;;;;;;5033954;28;20622;-68
2023/02/08 01:36:49;;;;;;;9.13;6.10;;;17.10;33.10;;;;;;5034028;28;20550;-67
2023/02/08 01:39:16;;;;;;;9.60;5.70;;;17.10;33.10;;;;;;5034051;28;20282;-67
2023/02/08 01:41:45;;;;;;;9.52;6.00;;;17.10;33.00;;;;;;5033218;28;20224;-68
2023/02/08 01:44:49;;;;;;;8.27;5.97;;;17.10;33.10;;;;;;5033373;28;20603;-68
2023/02/08 01:47:18;;;;;;;8.02;5.40;;;17.10;32.90;;;;;;5033774;28;20646;-67
2023/02/08 01:49:45;;;;;;;10.00;6.28;;;17.10;33.10;;;;;;5033622;28;20706;-67
2023/02/08 01:52:17;;;;;;;9.80;6.07;;;17.10;33.10;;;;;;5015789;28;20235;-68
2023/02/08 01:54:48;;;;;;;11.00;6.07;;;17.10;33.00;;;;;;5033423;28;20768;-68
2023/02/08 01:57:15;;;;;;;10.25;6.47;;;17.10;33.00;;;;;;5033603;28;20192;-68
2023/02/08 01:59:47;;;;;;;8.90;5.75;;;17.00;32.90;;;;;;5033642;28;20263;-68
2023/02/08 02:02:20;;;;;;;8.60;5.78;;;17.00;32.90;;;;;;5033419;28;20242;-68
2023/02/08 02:04:48;;;;;;;9.38;6.32;;;17.00;32.90;;;;;;5033180;28;20224;-67
2023/02/08 02:07:17;;;;;;;7.95;5.80;;;17.00;32.80;;;;;;5033084;28;20717;-68
2023/02/08 02:09:49;;;;;;;10.52;6.32;;;17.00;32.90;;;;;;5033576;28;20220;-68
2023/02/08 02:12:18;;;;;;;8.90;6.15;;;17.00;32.80;;;;;;5033208;28;20188;-67
2023/02/08 02:14:45;;;;;;;8.60;5.75;;;17.00;32.80;;;;;;5033306;28;20259;-68
2023/02/08 02:17:14;;;;;;;9.15;6.30;;;17.00;32.80;;;;;;5032695;28;20231;-68
2023/02/08 02:19:52;;;;;;;8.00;5.90;;;17.00;32.80;;;;;;5033229;28;20224;-68
2023/02/08 02:23:05;;;;;;;7.70;5.60;;;17.00;32.80;;;;;;5032794;28;20712;-68
2023/02/08 02:26:12;;;;;;;9.10;6.00;;;17.00;32.70;;;;;;5019412;28;20220;-68
2023/02/08 02:29:06;;;;;;;9.68;5.90;;;17.00;32.80;;;;;;5032856;28;20242;-68
2023/02/08 02:31:59;;;;;;;8.55;5.65;;;17.00;33.40;;;;;;4950066;29;20208;-68
2023/02/08 02:34:33;;;;;;;7.95;5.68;;;17.00;32.80;;;;;;4952322;29;20581;-67
2023/02/08 02:37:12;;;;;;;9.27;5.78;;;17.00;32.80;;;;;;4952490;29;20429;-67
2023/02/08 02:39:44;;;;;;;8.65;5.60;;;17.00;32.80;;;;;;4952223;29;20223;-67
2023/02/08 02:45:10;;;;;;;7.32;5.68;;;16.90;32.70;;;;;;4952155;29;20294;-68
2023/02/08 02:47:45;;;;;;;7.90;5.40;;;16.90;32.70;;;;;;4952122;29;20195;-68
2023/02/08 02:50:20;;;;;;;7.93;5.30;;;16.90;32.70;;;;;;4952375;29;20299;-67
2023/02/08 02:52:51;;;;;;;7.57;5.47;;;16.90;32.70;;;;;;4951945;28;20191;-67
2023/02/08 02:55:24;;;;;;;8.45;5.88;;;16.90;32.70;;;;;;4952111;29;20219;-68
2023/02/08 02:57:56;;;;;;;7.85;5.32;;;16.90;32.70;;;;;;4952043;29;20192;-68
2023/02/08 03:00:27;;;;;;;8.02;5.50;;;16.90;32.70;;;;;;4951904;29;20748;-68
2023/02/08 03:02:57;;;;;;;7.95;5.13;;;16.90;32.60;;;;;;4951980;29;20195;-67
2023/02/08 03:05:24;;;;;;;10.95;5.25;;;16.90;32.60;;;;;;4936234;29;20223;-68
2023/02/08 03:08:22;;;;;;;7.55;5.22;;;16.90;32.60;;;;;;4959273;28;20254;-68
2023/02/08 03:11:18;;;;;;;8.50;5.32;;;16.90;32.50;;;;;;5032086;28;20689;-68
2023/02/08 03:14:03;;;;;;;7.55;5.45;;;16.90;32.50;;;;;;5032071;28;20730;-68
2023/02/08 03:16:41;;;;;;;8.80;5.13;;;16.90;32.60;;;;;;5032000;28;20323;-67
2023/02/08 03:19:15;;;;;;;6.65;5.03;;;16.90;32.60;;;;;;5032512;28;20219;-68
2023/02/08 03:21:48;;;;;;;8.30;5.60;;;16.90;32.60;;;;;;5014589;28;20258;-68
2023/02/08 03:24:25;;;;;;;8.10;5.40;;;16.80;32.50;;;;;;5032314;28;20220;-68
2023/02/08 03:26:57;;;;;;;7.30;5.57;;;16.80;32.50;;;;;;5032316;28;20188;-68
2023/02/08 03:29:34;;;;;;;7.28;5.03;;;16.80;32.50;;;;;;5032214;28;20245;-68
2023/02/08 03:32:08;;;;;;;8.75;5.88;;;16.80;32.40;;;;;;5032180;28;20192;-67
2023/02/08 03:34:48;;;;;;;7.05;5.32;;;16.80;32.50;;;;;;5032288;28;20220;-67
2023/02/08 03:37:19;;;;;;;8.23;5.20;;;16.80;32.40;;;;;;5015507;28;20662;-68
2023/02/08 03:39:49;;;;;;;8.60;5.38;;;16.80;32.50;;;;;;5031897;28;20371;-67
2023/02/08 03:42:24;;;;;;;6.57;5.22;;;16.80;32.40;;;;;;5032042;28;20274;-67
2023/02/08 03:44:55;;;;;;;8.93;6.00;;;16.80;32.40;;;;;;5032460;28;20250;-68
2023/02/08 03:47:24;;;;;;;8.30;5.70;;;16.80;32.40;;;;;;5032178;28;20188;-68
2023/02/08 03:49:56;;;;;;;9.10;5.85;;;16.80;32.40;;;;;;5031993;28;20270;-68
2023/02/08 03:52:24;;;;;;;8.25;5.60;;;16.80;33.00;;;;;;5031904;28;20188;-68
2023/02/08 03:54:55;;;;;;;7.43;5.40;;;16.70;32.20;;;;;;5031987;28;20270;-68
2023/02/08 03:57:25;;;;;;;7.93;5.60;;;16.80;32.30;;;;;;5032301;28;20207;-67
2023/02/08 03:59:56;;;;;;;7.78;5.55;;;16.80;32.30;;;;;;5031854;28;20251;-67
2023/02/08 04:02:27;;;;;;;9.45;6.05;;;16.80;32.30;;;;;;5031522;28;20266;-68
2023/02/08 04:04:57;;;;;;;9.68;6.00;;;16.80;32.30;;;;;;5033185;28;20216;-67
2023/02/08 04:07:25;;;;;;;10.30;6.10;;;16.70;32.20;;;;;;5035395;28;20646;-67
2023/02/08 04:09:52;;;;;;;7.97;5.63;;;16.70;32.20;;;;;;5035356;28;20271;-67
2023/02/08 04:12:19;;;;;;;8.90;6.07;;;16.70;32.10;;;;;;5035570;28;20250;-67
2023/02/08 04:14:46;;;;;;;7.60;5.53;;;16.70;32.10;;;;;;5035168;28;20708;-68
2023/02/08 04:17:13;;;;;;;11.05;5.75;;;16.70;32.10;;;;;;5017753;28;20231;-68
2023/02/08 04:19:40;;;;;;;9.00;6.25;;;16.70;32.10;;;;;;5035492;28;20220;-67
2023/02/08 04:22:09;;;;;;;8.98;5.70;;;16.70;32.10;;;;;;5035307;28;20482;-67
2023/02/08 04:24:36;;;;;;;8.32;5.78;;;16.70;32.10;;;;;;5034848;28;20220;-67
2023/02/08 04:27:03;;;;;;;8.55;5.88;;;16.70;32.00;;;;;;5035238;28;20192;-68
2023/02/08 04:29:30;;;;;;;8.15;5.80;;;16.70;32.00;;;;;;5017421;28;20216;-67
2023/02/08 04:31:58;;;;;;;9.48;6.13;;;16.70;32.00;;;;;;5035175;28;20184;-68
2023/02/08 04:34:26;;;;;;;9.63;5.75;;;16.70;32.00;;;;;;5035030;28;20227;-68
2023/02/08 04:36:53;;;;;;;8.48;6.30;;;16.70;32.00;;;;;;5035159;28;20246;-68
2023/02/08 04:39:21;;;;;;;9.60;6.35;;;16.60;32.00;;;;;;5034797;28;20212;-67
2023/02/08 04:41:48;;;;;;;8.85;6.15;;;16.70;32.80;;;;;;5034734;28;20258;-68
2023/02/08 04:44:15;;;;;;;12.82;6.10;;;16.60;32.00;;;;;;5034729;28;20689;-68
2023/02/08 04:46:42;;;;;;;10.93;6.43;;;16.60;32.00;;;;;;5034990;28;20254;-68
2023/02/08 04:49:09;;;;;;;8.85;6.18;;;16.60;32.00;;;;;;5017321;28;20274;-68
2023/02/08 04:51:37;;;;;;;9.80;6.13;;;16.60;31.90;;;;;;5034827;28;20184;-67
2023/02/08 04:54:04;;;;;;;10.25;6.53;;;16.60;32.00;;;;;;5034855;28;20216;-67
2023/02/08 04:56:32;;;;;;;9.15;6.30;;;16.60;31.90;;;;;;5034641;28;20542;-67
2023/02/08 04:59:00;;;;;;;9.98;6.38;;;16.60;31.90;;;;;;5034679;28;20220;-68
2023/02/08 05:01:27;;;;;;;9.15;6.68;;;16.60;31.90;;;;;;5034212;28;20208;-68
2023/02/08 05:03:54;;;;;;;9.02;6.32;;;16.60;31.90;;;;;;5034629;28;20224;-67
2023/02/08 05:06:21;;;;;;;10.75;7.25;;;16.60;31.90;;;;;;5034610;28;20250;-68
2023/02/08 05:08:48;;;;;;;9.00;6.20;;;16.60;31.90;;;;;;5034806;28;20243;-68
2023/02/08 05:11:21;;;;;;;9.55;6.43;;;16.60;31.80;;;;;;5034516;28;20192;-68
2023/02/08 05:13:50;;;;;;;10.50;6.25;;;16.60;31.90;;;;;;5034449;28;20204;-67
2023/02/08 05:16:17;;;;;;;8.68;6.07;;;16.50;31.70;;;;;;5032801;28;20656;-68
2023/02/08 05:18:44;;;;;;;9.18;6.18;;;16.50;31.70;;;;;;5034231;28;20728;-67
2023/02/08 05:21:12;;;;;;;13.20;6.70;;;16.50;31.70;;;;;;5033947;28;20212;-67
2023/02/08 05:23:39;;;;;;;9.55;6.05;;;16.50;31.70;;;;;;5034249;28;20251;-68
2023/02/08 05:26:06;;;;;;;7.72;5.95;;;16.50;31.70;;;;;;5033844;28;20231;-67
2023/02/08 05:28:34;;;;;;;9.63;6.40;;;16.50;31.70;;;;;;5033745;28;20193;-67
2023/02/08 05:31:11;;;;;;;10.40;6.60;;;16.50;31.70;;;;;;5033741;28;20215;-67
2023/02/08 05:33:39;;;;;;;10.82;6.30;;;16.50;31.60;;;;;;5034007;28;20189;-68
2023/02/08 05:36:06;;;;;;;7.97;5.82;;;16.50;31.70;;;;;;5033673;28;20616;-67
2023/02/08 05:38:33;;;;;;;8.38;6.38;;;16.50;31.70;;;;;;5034001;28;20243;-67
2023/02/08 05:41:00;;;;;;;9.57;6.38;;;16.50;31.70;;;;;;5033802;28;20262;-68
2023/02/08 05:43:28;;;;;;;8.13;5.75;;;16.50;31.70;;;;;;5033874;28;20242;-68
2023/02/08 05:45:55;;;;;;;9.13;6.10;;;16.50;31.80;;;;;;5033981;28;20212;-67
2023/02/08 05:48:23;;;;;;;9.00;6.05;;;16.50;31.80;;;;;;5033867;28;20546;-67
2023/02/08 05:50:50;;;;;;;9.07;5.95;;;16.50;31.80;;;;;;5033599;28;20216;-68
2023/02/08 05:53:17;;;;;;;9.15;6.00;;;16.50;31.80;;;;;;5033755;28;20204;-67
2023/02/08 05:55:47;;;;;;;7.80;5.57;;;16.60;32.60;;;;;;5033794;28;20216;-67
2023/02/08 05:58:14;;;;;;;6.93;5.65;;;16.60;32.00;;;;;;5033568;28;20216;-68
2023/02/08 06:00:42;;;;;;;9.50;6.22;;;16.60;32.00;;;;;;5032947;28;20278;-68
2023/02/08 06:03:09;;;;;;;10.57;6.10;;;16.70;32.00;;;;;;5033626;28;20216;-68
2023/02/08 06:05:38;;;;;;;8.18;5.50;;;16.70;32.10;;;;;;5033522;28;20350;-67
2023/02/08 06:08:06;;;;;;;9.82;5.55;;;16.70;32.10;;;;;;5033177;28;20616;-68
2023/02/08 06:10:33;;;;;;;8.07;5.30;;;16.70;32.80;;;;;;4999539;28;20251;-67
2023/02/08 06:13:00;;;;;;;7.95;5.47;;;16.80;32.20;;;;;;5033016;28;20192;-67
2023/02/08 06:15:27;;;;;;;8.18;5.30;;;16.80;32.20;;;;;;5032968;28;20231;-68
2023/02/08 06:17:55;;;;;;;8.88;5.07;;;16.80;32.30;;;;;;5033264;28;20250;-68
2023/02/08 06:20:22;;;;;;;7.60;4.97;;;16.80;32.30;;;;;;5033187;28;20350;-68
2023/02/08 06:22:50;;;;;;;8.52;5.20;;;16.80;32.30;;;;;;5032694;28;20759;-68
2023/02/08 06:25:18;;;;;;;6.95;5.18;;;16.90;32.50;;;;;;5033293;28;20212;-68
2023/02/08 06:27:45;;;;;;;6.57;5.30;;;16.90;32.50;;;;;;5032616;28;20192;-68
2023/02/08 06:30:12;;;;;;;8.07;5.30;;;16.90;32.50;;;;;;5033134;28;20220;-67
2023/02/08 06:32:39;;;;;;;7.47;5.10;;;16.90;32.50;;;;;;5032422;28;20658;-68
2023/02/08 06:35:07;;;;;;;9.23;5.13;;;17.00;32.60;;;;;;5015289;28;20680;-68
2023/02/08 06:37:34;;;;;;;8.57;5.75;;;17.00;32.60;;;;;;5015240;28;20712;-68
2023/02/08 06:40:03;;;;;;;6.70;4.80;;;17.00;32.60;;;;;;5032475;28;20635;-67
2023/02/08 06:42:30;;;;;;;7.28;4.68;;;17.00;32.70;;;;;;5032389;28;20660;-67
2023/02/08 06:44:57;;;;;;;7.22;4.80;;;17.00;32.70;;;;;;5032587;28;20232;-67
2023/02/08 06:47:26;;;;;;;7.68;4.97;;;17.10;32.80;;;;;;5032426;28;20646;-68
2023/02/08 06:49:53;;;;;;;7.72;4.70;;;17.10;32.90;;;;;;5032655;28;20274;-68
2023/02/08 06:52:21;;;;;;;8.43;5.20;;;17.10;32.90;;;;;;5032902;28;20196;-67
2023/02/08 06:54:48;;;;;;;8.00;5.25;;;17.10;32.90;;;;;;5032491;28;20771;-67
2023/02/08 06:57:17;;;;;;;6.30;4.70;;;17.20;33.00;;;;;;5032136;28;20188;-67
2023/02/08 06:59:44;;;;;;;6.57;4.90;;;17.10;33.00;;;;;;5032281;28;20216;-67
2023/02/08 07:02:13;;;;;;;8.13;4.15;;;17.20;33.10;;;;;;5032733;28;20212;-67
2023/02/08 07:04:40;;;;;;;6.45;4.57;;;17.20;33.10;;;;;;5032296;28;20223;-67
2023/02/08 07:07:08;;;;;;;6.85;4.78;;;17.20;33.10;;;;;;5032451;28;20196;-67
2023/02/08 07:09:36;;;;;;;6.88;4.80;;;17.20;33.10;;;;;;5032477;28;20274;-68
2023/02/08 07:12:04;;;;;;;6.53;4.20;;;17.20;33.10;;;;;;5032158;28;20609;-68
2023/02/08 07:14:33;;;;;;;7.60;4.68;;;17.30;33.20;;;;;;5032433;28;20227;-68
2023/02/08 07:17:00;;;;;;;6.72;4.75;;;17.30;33.20;;;;;;5031968;28;20690;-68
2023/02/08 07:19:28;;;;;;;8.13;5.07;;;17.30;33.20;;;;;;5032245;28;20224;-67
2023/02/08 07:21:55;;;;;;;8.60;5.18;;;17.30;33.20;;;;;;5032233;28;20220;-67
2023/02/08 07:24:23;;;;;;;7.47;4.75;;;17.40;33.30;;;;;;5032002;28;20702;-68
2023/02/08 07:26:50;;;;;;;6.93;4.60;;;17.30;33.20;;;;;;5032325;28;20597;-68
2023/02/08 07:29:17;;;;;;;6.40;4.50;;;17.40;33.90;;;;;;5032279;28;20228;-67
2023/02/08 07:31:46;;;;;;;7.70;4.68;;;17.40;33.20;;;;;;5032290;28;20238;-68
2023/02/08 07:34:13;;;;;;;7.07;4.97;;;17.40;33.30;;;;;;5032194;28;20216;-67
2023/02/08 07:36:40;;;;;;;6.53;4.60;;;17.40;33.20;;;;;;5014640;28;20189;-67
2023/02/08 07:39:07;;;;;;;6.72;4.93;;;17.40;33.90;;;;;;5032147;28;20775;-68
2023/02/08 07:41:34;;;;;;;6.80;5.10;;;17.40;33.30;;;;;;5036106;28;20254;-67
2023/02/08 07:44:01;;;;;;;7.15;4.72;;;17.50;33.20;;;;;;5032486;28;20724;-67
2023/02/08 07:46:28;;;;;;;6.57;4.75;;;17.50;33.20;;;;;;5018630;28;20209;-68
2023/02/08 07:48:57;;;;;;;7.07;4.75;;;17.50;33.20;;;;;;5019650;28;20197;-67
2023/02/08 07:51:25;;;;;;;7.07;5.05;;;17.50;33.30;;;;;;5015196;28;20193;-67
2023/02/08 07:53:52;;;;;;;7.25;4.70;;;17.50;33.20;;;;;;5027633;28;20196;-67
2023/02/08 07:56:19;;;;;;;8.18;4.97;;;17.60;33.40;;;;;;5034983;28;20208;-67
2023/02/08 07:58:46;;;;;;;6.93;4.70;;;17.60;33.20;;;;;;5035231;28;20227;-67
2023/02/08 08:01:13;;;;;;;8.02;4.95;;;17.60;33.00;;;;;;5035547;28;20552;-67
2023/02/08 08:03:40;;;;;;;6.18;4.32;;;17.70;33.10;;;;;;5024919;28;20258;-67
2023/02/08 08:06:09;;;;;;;8.25;5.20;;;17.70;33.20;;;;;;5005653;28;20224;-70
2023/02/08 08:08:36;;;;;;;8.75;5.53;;;17.70;33.00;;;;;;5031068;28;20200;-68
2023/02/08 08:11:03;;;;;;;9.45;4.82;;;17.80;33.00;;;;;;5031349;28;20303;-68
2023/02/08 08:13:30;;;;;;;7.30;4.88;;;17.80;32.90;;;;;;5032040;28;20246;-67
2023/02/08 08:15:57;;;;;;;7.88;5.25;;;17.90;33.10;;;;;;5031357;28;20228;-68
2023/02/08 08:18:25;;;;;;;8.13;5.15;;;17.80;33.20;;;;;;5031639;28;20243;-68
2023/02/08 08:20:52;;;;;;;8.32;5.43;;;17.90;33.30;;;;;;5031122;28;20232;-67
2023/02/08 08:23:21;;;;;;;9.77;6.38;;;17.90;33.40;;;;;;5031289;28;20697;-68
2023/02/08 08:25:48;;;;;;;9.98;6.03;;;17.90;33.50;;;;;;5031694;28;20297;-67
2023/02/08 08:28:16;;;;;;;9.10;5.63;;;17.90;33.50;;;;;;5031689;28;20196;-68
2023/02/08 08:30:44;;;;;;;8.40;5.63;;;18.00;33.70;;;;;;5013641;28;20713;-67
2023/02/08 08:33:12;;;;;;;9.45;5.55;;;18.00;33.70;;;;;;5014291;28;20196;-68
2023/02/08 08:35:41;;;;;;;11.68;5.93;;;18.00;33.70;;;;;;5031206;28;20216;-68
2023/02/08 08:38:08;;;;;;;8.23;6.03;;;18.10;33.80;;;;;;5031285;28;20283;-67
2023/02/08 08:40:37;;;;;;;10.30;6.10;;;18.10;33.80;;;;;;5031225;28;20224;-68
2023/02/08 08:43:04;;;;;;;10.63;5.90;;;18.10;33.80;;;;;;5031348;28;20270;-67
2023/02/08 08:45:31;;;;;;;12.20;6.75;;;18.10;33.70;;;;;;5031344;28;20224;-67
2023/02/08 08:47:59;;;;;;;10.43;6.45;;;18.10;33.60;;;;;;5031372;28;20255;-67
2023/02/08 08:50:26;;;;;;;15.43;7.20;;;18.10;33.60;;;;;;5030526;28;20605;-68
2023/02/08 08:52:53;;;;;;;11.18;6.20;;;18.20;33.70;;;;;;5031371;28;20239;-67
2023/02/08 08:55:20;;;;;;;11.10;7.13;;;18.20;33.70;;;;;;5030802;28;20274;-67
2023/02/08 08:57:49;;;;;;;12.63;6.95;;;18.20;34.30;;;;;;5029977;28;20658;-68
2023/02/08 09:00:18;;;;;;;10.55;6.82;;;18.20;33.70;;;;;;5030068;28;20771;-67
2023/02/08 09:02:45;;;;;;;10.57;6.90;;;18.30;33.70;;;;;;5012938;28;20760;-67
2023/02/08 09:05:12;;;;;;;13.77;7.13;;;18.30;33.60;;;;;;5030889;28;20220;-67
2023/02/08 09:07:39;;;;;;;12.43;7.00;;;18.30;33.50;;;;;;5006932;28;20194;-68
2023/02/08 09:10:06;;;;;;;10.23;6.78;;;18.30;33.40;;;;;;5028121;28;20228;-68
2023/02/08 09:12:33;;;;;;;10.00;6.93;;;18.30;33.40;;;;;;5022406;28;20620;-68
2023/02/08 09:15:02;;;;;;;10.45;7.35;;;18.30;33.30;;;;;;5018743;28;20212;-68
2023/02/08 09:17:29;;;;;;;10.70;6.70;;;18.30;33.20;;;;;;5036554;28;20240;-67
2023/02/08 09:19:56;;;;;;;13.45;7.15;;;18.40;33.10;;;;;;5050487;28;20266;-68
2023/02/08 09:22:23;;;;;;;9.60;6.50;;;18.40;33.20;;;;;;5049968;28;20725;-68
2023/02/08 09:24:52;;;;;;;10.18;6.78;;;18.40;33.20;;;;;;5050574;28;20307;-67
2023/02/08 09:27:19;;;;;;;12.63;6.68;;;18.40;33.10;;;;;;5033469;28;20208;-68
2023/02/08 09:29:46;;;;;;;10.23;6.80;;;18.40;32.90;;;;;;5023791;28;20271;-68
2023/02/08 09:32:15;;;;;;;10.70;7.25;;;18.40;32.90;;;;;;5033316;28;20196;-68
2023/02/08 09:34:42;;;;;;;12.32;6.90;;;18.50;33.00;;;;;;5029916;28;20220;-68
2023/02/08 09:37:09;;;;;;;9.38;6.45;;;18.50;32.80;;;;;;5012529;28;20216;-68
2023/02/08 09:39:36;;;;;;;10.73;6.32;;;18.50;32.90;;;;;;5030267;28;20282;-68
2023/02/08 09:42:26;;;;;;;12.32;7.32;;;18.50;32.80;;;;;;5030181;28;20197;-67
2023/02/08 09:45:16;;;;;;;11.13;6.90;;;18.50;32.70;;;;;;5030344;28;20228;-68
2023/02/08 09:47:54;;;;;;;11.70;7.35;;;18.60;32.80;;;;;;5048213;28;20199;-69
2023/02/08 09:50:31;;;;;;;11.88;7.18;;;18.60;32.90;;;;;;5046741;28;20219;-69
2023/02/08 09:53:05;;;;;;;11.75;7.85;;;18.60;33.00;;;;;;5029294;28;20218;-69
2023/02/08 09:55:47;;;;;;;11.63;7.47;;;18.60;32.80;;;;;;5028244;28;20648;-68
2023/02/08 09:58:21;;;;;;;10.93;6.88;;;18.60;32.80;;;;;;5028534;28;20605;-68
2023/02/08 10:00:51;;;;;;;10.32;6.57;;;18.60;32.80;;;;;;5027006;28;20254;-68
2023/02/08 10:03:33;;;;;;;10.35;6.80;;;18.60;32.50;;;;;;5027635;28;20231;-66
2023/02/08 10:06:01;;;;;;;11.45;6.90;;;18.70;32.60;;;;;;5028068;28;20219;-69
2023/02/08 10:08:30;;;;;;;12.68;6.90;;;18.70;32.50;;;;;;5027624;28;20196;-68
2023/02/08 10:11:05;;;;;;;11.90;6.80;;;18.70;32.50;;;;;;5025597;28;20223;-69
2023/02/08 10:13:59;;;;;;;12.80;7.20;;;18.70;32.50;;;;;;5021519;28;20257;-69
2023/02/08 10:16:42;;;;;;;13.13;6.68;;;18.70;32.50;;;;;;5021882;28;21130;-68
2023/02/08 10:19:22;;;;;;;9.57;6.30;;;18.70;32.30;;;;;;5006722;28;20929;-68
2023/02/08 10:22:02;;;;;;;9.68;6.63;;;18.80;32.30;;;;;;5029493;28;20200;-68
2023/02/08 10:24:52;;;;;;;10.77;6.28;;;18.80;32.50;;;;;;5024359;28;20702;-69
2023/02/08 10:27:30;;;;;;;8.18;5.78;;;18.80;32.40;;;;;;5009265;28;20725;-68
2023/02/08 10:30:33;;;;;;;9.98;6.22;;;18.80;32.30;;;;;;5027150;28;20303;-69
2023/02/08 10:33:02;;;;;;;9.48;6.35;;;18.80;32.30;;;;;;5027609;28;20239;-68
2023/02/08 10:35:36;;;;;;;9.60;6.28;;;18.80;32.20;;;;;;5024944;28;20228;-69
2023/02/08 10:38:21;;;;;;;11.13;6.60;;;18.90;32.50;;;;;;5027454;28;20704;-69
2023/02/08 10:40:51;;;;;;;8.38;6.05;;;18.90;32.50;;;;;;5028434;28;20358;-68
2023/02/08 10:43:28;;;;;;;9.57;6.07;;;18.90;32.30;;;;;;5025579;28;20707;-69
2023/02/08 10:46:04;;;;;;;11.48;6.40;;;18.90;32.40;;;;;;5018842;28;20216;-69
2023/02/08 10:48:42;;;;;;;10.90;6.15;;;18.90;32.40;;;;;;5048603;28;20265;-67
2023/02/08 10:51:14;;;;;;;12.30;5.70;;;18.90;32.30;;;;;;5034880;28;20215;-67
2023/02/08 10:53:41;;;;;;;9.25;6.22;;;18.90;32.50;;;;;;5025260;28;20211;-67
2023/02/08 10:56:21;;;;;;;10.50;5.88;;;18.90;32.20;;;;;;5024545;28;20216;-67
2023/02/08 10:58:49;;;;;;;8.55;5.68;;;18.90;32.20;;;;;;5028871;28;20266;-66
2023/02/08 11:01:16;;;;;;;9.02;5.68;;;18.90;32.40;;;;;;5031959;28;20704;-66
2023/02/08 11:04:01;;;;;;;8.63;5.53;;;19.00;32.20;;;;;;5048619;28;20599;-67
2023/02/08 11:06:31;;;;;;;9.95;6.13;;;19.00;32.20;;;;;;5043577;28;20278;-66
2023/02/08 11:08:58;;;;;;;9.90;6.38;;;19.00;32.30;;;;;;5031879;28;20580;-67
2023/02/08 11:11:28;;;;;;;10.52;5.95;;;19.00;32.20;;;;;;5025338;28;20212;-66
2023/02/08 11:14:07;;;;;;;10.00;5.97;;;19.00;32.30;;;;;;5026118;28;20293;-67
2023/02/08 11:16:35;;;;;;;8.75;5.75;;;19.00;32.30;;;;;;5026702;28;20686;-66
2023/02/08 11:19:06;;;;;;;8.18;5.68;;;19.00;32.30;;;;;;5028389;28;20627;-66
2023/02/08 11:21:39;;;;;;;10.45;5.60;;;19.10;32.30;;;;;;5028509;28;20275;-67
2023/02/08 11:24:22;;;;;;;7.47;5.45;;;19.10;32.40;;;;;;5021002;28;20221;-67
2023/02/08 11:26:50;;;;;;;9.40;5.35;;;19.10;32.40;;;;;;5009391;28;20208;-66
2023/02/08 11:29:18;;;;;;;9.85;5.85;;;19.10;32.40;;;;;;5008577;28;20197;-67
2023/02/08 11:31:58;;;;;;;7.15;5.20;;;19.10;32.50;;;;;;5026977;28;20624;-66
2023/02/08 11:34:27;;;;;;;9.98;6.07;;;19.10;32.50;;;;;;5028113;28;20208;-67
2023/02/08 11:36:58;;;;;;;7.70;5.32;;;19.10;32.50;;;;;;5027883;28;20195;-66
2023/02/08 11:39:27;;;;;;;7.97;5.32;;;19.10;32.50;;;;;;5028133;28;20211;-66
2023/02/08 11:41:58;;;;;;;7.70;5.10;;;19.10;32.60;;;;;;5027136;28;20213;-66
2023/02/08 11:44:31;;;;;;;7.65;5.15;;;19.10;32.80;;;;;;5006757;28;20224;-67
2023/02/08 11:47:01;;;;;;;6.28;4.93;;;19.20;32.60;;;;;;5025697;28;20192;-68
2023/02/08 11:49:35;;;;;;;6.35;4.57;;;19.10;32.50;;;;;;5024584;28;20270;-66
2023/02/08 11:52:05;;;;;;;8.00;5.00;;;19.20;32.40;;;;;;5023585;28;20242;-67
2023/02/08 11:54:37;;;;;;;6.93;4.97;;;19.10;32.40;;;;;;5025620;28;20282;-66
2023/02/08 11:57:13;;;;;;;6.55;4.82;;;19.10;32.30;;;;;;5026595;28;20204;-67
2023/02/08 11:59:41;;;;;;;6.53;4.72;;;19.20;32.30;;;;;;5025409;28;20232;-67
2023/02/08 12:02:37;;;;;;;7.82;4.50;;;19.10;32.30;;;;;;5008632;28;20254;-67
2023/02/08 12:05:10;;;;;;;7.13;5.20;;;19.20;32.30;;;;;;5027438;28;20240;-69
2023/02/08 12:07:55;;;;;;;5.53;4.22;;;19.20;32.20;;;;;;5027793;28;20197;-69
2023/02/08 12:10:49;;;;;;;7.22;5.00;;;19.20;32.30;;;;;;5027583;28;20795;-67
2023/02/08 12:13:34;;;;;;;7.30;4.65;;;19.20;32.20;;;;;;5027270;28;20674;-68
2023/02/08 12:16:12;;;;;;;7.50;4.75;;;19.20;32.20;;;;;;5027441;28;20248;-68
2023/02/08 12:19:00;;;;;;;6.13;4.40;;;19.20;32.20;;;;;;5028028;28;20196;-68
2023/02/08 12:21:34;;;;;;;5.82;4.60;;;19.20;32.20;;;;;;5027680;28;20272;-68
2023/02/08 12:24:10;;;;;;;5.63;4.57;;;19.20;32.90;;;;;;5027520;28;20753;-67
2023/02/08 12:26:47;;;;;;;4.90;4.22;;;19.30;32.40;;;;;;5030037;28;20197;-67
2023/02/08 12:29:34;;;;;;;8.82;4.50;;;19.30;32.40;;;;;;5031228;28;20196;-67
2023/02/08 12:32:15;;;;;;;7.05;4.50;;;19.30;32.50;;;;;;5031286;28;20201;-67
2023/02/08 12:35:04;;;;;;;6.38;4.40;;;19.30;32.30;;;;;;5031159;28;20223;-68
2023/02/08 12:40:51;;;;;;;10.85;4.07;;;19.30;32.50;;;;;;5030695;28;20310;-68
2023/02/08 12:43:40;;;;;;;7.63;4.63;;;19.30;32.50;;;;;;5017115;28;20200;-68
2023/02/08 12:46:17;;;;;;;5.63;4.20;;;19.30;32.50;;;;;;5029163;28;20251;-67
2023/02/08 12:49:13;;;;;;;8.50;4.15;;;19.30;32.50;;;;;;5012463;28;20577;-68
2023/02/08 12:51:48;;;;;;;5.90;4.28;;;19.30;32.40;;;;;;5030160;28;20301;-68
2023/02/08 12:54:24;;;;;;;5.95;4.50;;;19.30;32.50;;;;;;5049843;28;20192;-67
2023/02/08 12:56:56;;;;;;;7.00;4.95;;;19.30;32.60;;;;;;5049960;28;20199;-67
2023/02/08 12:59:28;;;;;;;7.43;5.03;;;19.30;32.50;;;;;;5050321;28;20195;-67
2023/02/08 13:02:02;;;;;;;8.65;5.05;;;19.30;32.50;;;;;;5032701;28;20199;-68
2023/02/08 13:04:37;;;;;;;10.32;4.95;;;19.20;32.50;;;;;;5019183;28;20231;-68
2023/02/08 13:07:19;;;;;;;8.20;4.78;;;19.20;32.50;;;;;;5025411;28;20204;-67
2023/02/08 13:09:52;;;;;;;6.70;4.57;;;19.20;32.60;;;;;;5018796;28;20227;-68
2023/02/08 13:12:26;;;;;;;7.43;5.00;;;19.20;32.80;;;;;;5022007;28;20200;-68